createdAt,value
2022-11-09T00:04:06.317Z,100.00
2022-11-09T00:09:09.952Z,100.00
2022-11-09T00:14:17.108Z,100.00
2022-11-09T00:19:19.887Z,100.00
2022-11-09T00:24:22.580Z,100.00
2022-11-09T00:29:25.305Z,100.00
2022-11-09T00:34:28.023Z,100.00
2022-11-09T00:39:30.728Z,100.00
2022-11-09T00:44:33.653Z,100.00
2022-11-09T00:49:36.366Z,100.00
2022-11-09T00:54:39.101Z,100.00
2022-11-09T00:59:41.877Z,100.00
2022-11-09T01:04:44.583Z,100.00
2022-11-09T01:09:47.307Z,100.00
2022-11-09T01:14:50.041Z,100.00
2022-11-09T01:19:52.782Z,100.00
2022-11-09T01:24:55.525Z,100.00
2022-11-09T01:29:58.311Z,100.00
2022-11-09T01:35:01.064Z,100.00
2022-11-09T01:40:04.274Z,100.00
2022-11-09T01:45:19.032Z,100.00
2022-11-09T01:50:31.113Z,100.00
2022-11-09T01:55:34.025Z,100.00
2022-11-09T02:00:39.089Z,100.00
2022-11-09T02:05:43.052Z,100.00
2022-11-09T02:10:56.011Z,100.00
2022-11-09T02:15:59.863Z,100.00
2022-11-09T02:21:02.836Z,100.00
2022-11-09T02:26:10.015Z,100.00
2022-11-09T02:31:16.103Z,100.00
2022-11-09T02:36:18.794Z,100.00
2022-11-09T02:41:22.912Z,100.00
2022-11-09T02:46:31.979Z,100.00
2022-11-09T02:51:34.774Z,100.00
2022-11-09T02:56:37.754Z,100.00
2022-11-09T03:01:40.616Z,100.00
2022-11-09T03:06:43.585Z,100.00
2022-11-09T03:11:46.584Z,100.00
2022-11-09T03:16:50.924Z,100.00
2022-11-09T03:21:53.978Z,100.00
2022-11-09T03:26:56.714Z,100.00
2022-11-09T03:31:59.770Z,100.00
2022-11-09T03:37:02.557Z,100.00
2022-11-09T03:42:05.317Z,100.00
2022-11-09T03:47:08.149Z,100.00
2022-11-09T03:52:10.874Z,100.00
2022-11-09T03:57:13.580Z,100.00
2022-11-09T04:02:16.326Z,100.00
2022-11-09T04:07:19.151Z,100.00
2022-11-09T04:12:21.897Z,100.00
2022-11-09T04:17:24.704Z,100.00
2022-11-09T04:22:27.495Z,100.00
2022-11-09T04:27:30.183Z,100.00
2022-11-09T04:32:32.923Z,100.00
2022-11-09T04:37:35.705Z,100.00
2022-11-09T04:42:38.458Z,100.00
2022-11-09T04:47:41.227Z,100.00
2022-11-09T04:52:43.933Z,100.00
2022-11-09T04:57:46.661Z,100.00
2022-11-09T05:02:49.373Z,100.00
2022-11-09T05:07:52.091Z,100.00
2022-11-09T05:13:02.756Z,100.00
2022-11-09T05:18:06.778Z,100.00
2022-11-09T05:23:28.477Z,100.00
2022-11-09T05:28:31.186Z,100.00
2022-11-09T05:33:33.935Z,100.00
2022-11-09T05:38:36.663Z,100.00
2022-11-09T05:43:39.432Z,100.00
2022-11-09T05:48:43.163Z,100.00
2022-11-09T05:53:46.948Z,100.00
2022-11-09T05:58:49.990Z,100.00
2022-11-09T06:03:54.424Z,100.00
2022-11-09T06:08:57.141Z,100.00
2022-11-09T06:13:59.840Z,100.00
2022-11-09T06:19:02.654Z,100.00
2022-11-09T06:24:05.731Z,100.00
2022-11-09T06:29:09.112Z,100.00
2022-11-09T06:34:11.870Z,100.00
2022-11-09T06:39:14.612Z,100.00
2022-11-09T06:44:17.496Z,100.00
2022-11-09T06:49:22.203Z,100.00
2022-11-09T06:54:25.516Z,100.00
2022-11-09T06:59:28.970Z,100.00
2022-11-09T07:04:32.131Z,100.00
2022-11-09T07:09:35.236Z,100.00
2022-11-09T07:14:37.980Z,100.00
2022-11-09T07:19:41.400Z,100.00
2022-11-09T07:24:44.184Z,100.00
2022-11-09T07:29:46.924Z,100.00
2022-11-09T07:34:50.107Z,100.00
2022-11-09T07:39:52.826Z,100.00
2022-11-09T07:44:56.121Z,100.00
2022-11-09T07:49:59.373Z,100.00
2022-11-09T07:55:02.835Z,100.00
2022-11-09T08:00:06.088Z,100.00
2022-11-09T08:05:09.058Z,100.00
2022-11-09T08:10:12.693Z,100.00
2022-11-09T08:15:17.051Z,100.00
2022-11-09T08:20:31.535Z,100.00
2022-11-09T08:25:41.155Z,100.00
2022-11-09T08:30:59.001Z,100.00
2022-11-09T08:36:12.556Z,100.00
2022-11-09T08:41:15.506Z,100.00
2022-11-09T08:46:18.612Z,100.00
2022-11-09T08:51:21.447Z,100.00
2022-11-09T08:56:24.260Z,100.00
2022-11-09T09:01:27.044Z,100.00
2022-11-09T09:06:31.301Z,100.00
2022-11-09T09:11:34.605Z,100.00
2022-11-09T09:16:37.787Z,100.00
2022-11-09T09:21:40.647Z,100.00
2022-11-09T09:26:45.516Z,100.00
2022-11-09T09:31:48.223Z,100.00
2022-11-09T09:36:54.445Z,100.00
2022-11-09T09:42:01.083Z,100.00
2022-11-09T09:47:14.244Z,100.00
2022-11-09T09:52:29.405Z,100.00
2022-11-09T09:57:37.629Z,100.00
2022-11-09T10:02:43.411Z,100.00
2022-11-09T10:07:56.015Z,100.00
2022-11-09T10:13:17.071Z,100.00
2022-11-09T10:18:20.137Z,100.00
2022-11-09T10:23:50.519Z,100.00
2022-11-09T10:29:16.770Z,100.00
2022-11-09T10:34:24.496Z,100.00
2022-11-09T10:39:35.900Z,100.00
2022-11-09T10:44:39.289Z,100.00
2022-11-09T10:49:42.247Z,100.00
2022-11-09T10:54:44.860Z,100.00
2022-11-09T10:59:52.122Z,100.00
2022-11-09T11:05:07.025Z,100.00
2022-11-09T11:10:23.631Z,100.00
2022-11-09T11:15:36.464Z,100.00
2022-11-09T11:20:39.238Z,100.00
2022-11-09T11:25:54.448Z,100.00
2022-11-09T11:30:57.479Z,99.96
2022-11-09T11:36:23.399Z,100.00
2022-11-09T11:41:44.709Z,100.00
2022-11-09T11:47:07.252Z,100.00
2022-11-09T11:52:25.936Z,100.00
2022-11-09T11:57:45.844Z,99.33
2022-11-09T12:02:54.174Z,99.42
2022-11-09T12:08:24.432Z,97.38
2022-11-09T12:14:04.494Z,98.57
2022-11-09T12:19:10.500Z,97.91
2022-11-09T12:24:21.801Z,97.80
2022-11-09T12:29:34.189Z,97.32
2022-11-09T12:35:00.136Z,97.86
2022-11-09T12:40:25.950Z,97.84
2022-11-09T12:45:38.003Z,97.51
2022-11-09T12:50:42.520Z,97.98
2022-11-09T12:56:21.683Z,98.38
2022-11-09T13:01:27.408Z,99.03
2022-11-09T13:06:40.154Z,99.62
2022-11-09T13:11:53.259Z,99.06
2022-11-09T13:16:57.023Z,99.13
2022-11-09T13:22:01.183Z,99.53
2022-11-09T13:27:04.489Z,99.08
2022-11-09T13:32:13.177Z,99.50
2022-11-09T13:37:46.850Z,99.69
2022-11-09T13:42:57.708Z,99.81
2022-11-09T13:48:00.602Z,100.00
2022-11-09T13:53:04.185Z,100.00
2022-11-09T13:58:13.759Z,100.00
2022-11-09T14:03:21.494Z,100.00
2022-11-09T14:08:30.418Z,100.00
2022-11-09T14:13:52.576Z,100.00
2022-11-09T14:19:10.448Z,100.00
2022-11-09T14:24:23.327Z,100.00
2022-11-09T14:29:26.793Z,100.00
2022-11-09T14:34:29.599Z,100.00
2022-11-09T14:39:37.343Z,100.00
2022-11-09T14:44:44.379Z,100.00
2022-11-09T14:49:48.568Z,100.00
2022-11-09T14:54:51.573Z,100.00
2022-11-09T14:59:55.139Z,100.00
2022-11-09T15:05:01.108Z,100.00
2022-11-09T15:10:18.540Z,100.00
2022-11-09T15:15:25.436Z,100.00
2022-11-09T15:20:32.019Z,100.00
2022-11-09T15:25:51.781Z,100.00
2022-11-09T15:30:54.451Z,100.00
2022-11-09T15:36:04.887Z,100.00
2022-11-09T15:41:16.803Z,100.00
2022-11-09T15:46:23.344Z,100.00
2022-11-09T15:51:26.197Z,100.00
2022-11-09T15:56:28.889Z,100.00
2022-11-09T16:01:34.579Z,100.00
2022-11-09T16:06:37.345Z,100.00
2022-11-09T16:11:40.091Z,100.00
2022-11-09T16:16:42.795Z,100.00
2022-11-09T16:21:45.650Z,100.00
2022-11-09T16:26:48.424Z,100.00
2022-11-09T16:31:52.393Z,100.00
2022-11-09T16:36:57.156Z,100.00
2022-11-09T16:42:04.893Z,100.00
2022-11-09T16:47:11.744Z,100.00
2022-11-09T16:52:14.772Z,100.00
2022-11-09T16:57:17.481Z,100.00
2022-11-09T17:02:20.271Z,100.00
2022-11-09T17:07:23.136Z,100.00
2022-11-09T17:12:25.918Z,100.00
2022-11-09T17:17:28.807Z,100.00
2022-11-09T17:22:31.580Z,100.00
2022-11-09T17:27:34.367Z,100.00
2022-11-09T17:32:38.194Z,100.00
2022-11-09T17:37:40.868Z,100.00
2022-11-09T17:42:43.600Z,100.00
2022-11-09T17:47:46.289Z,100.00
2022-11-09T17:52:49.491Z,100.00
2022-11-09T17:57:52.244Z,100.00
2022-11-09T18:02:55.739Z,100.00
2022-11-09T18:07:58.442Z,100.00
2022-11-09T18:13:01.862Z,100.00
2022-11-09T18:18:04.925Z,100.00
2022-11-09T18:23:08.664Z,100.00
2022-11-09T18:28:12.994Z,100.00
2022-11-09T18:33:15.724Z,100.00
2022-11-09T18:38:20.253Z,100.00
2022-11-09T18:43:23.758Z,100.00
2022-11-09T18:48:28.107Z,100.00
2022-11-09T18:53:40.503Z,100.00
2022-11-09T18:58:43.195Z,100.00
2022-11-09T19:03:46.005Z,100.00
2022-11-09T19:09:07.460Z,100.00
2022-11-09T19:14:11.217Z,100.00
2022-11-09T19:19:15.179Z,100.00
2022-11-09T19:24:20.587Z,100.00
2022-11-09T19:29:23.321Z,100.00
2022-11-09T19:34:26.111Z,100.00
2022-11-09T19:39:33.740Z,100.00
2022-11-09T19:44:37.544Z,100.00
2022-11-09T19:49:40.281Z,100.00
2022-11-09T19:54:43.711Z,100.00
2022-11-09T19:59:46.434Z,100.00
2022-11-09T20:04:50.854Z,100.00
2022-11-09T20:09:53.703Z,100.00
2022-11-09T20:14:57.467Z,100.00
2022-11-09T20:20:00.179Z,100.00
2022-11-09T20:25:03.406Z,100.00
2022-11-09T20:30:06.887Z,100.00
2022-11-09T20:35:09.769Z,100.00
2022-11-09T20:40:12.832Z,100.00
2022-11-09T20:45:15.692Z,100.00
2022-11-09T20:50:18.650Z,100.00
2022-11-09T20:55:21.390Z,100.00
2022-11-09T21:00:24.644Z,100.00
2022-11-09T21:05:27.985Z,100.00
2022-11-09T21:10:31.163Z,100.00
2022-11-09T21:15:33.870Z,100.00
2022-11-09T21:20:37.117Z,100.00
2022-11-09T21:26:07.928Z,100.00
2022-11-09T21:31:12.475Z,100.00
2022-11-09T21:36:20.744Z,100.00
2022-11-09T21:41:38.661Z,100.00
2022-11-09T21:46:43.138Z,100.00
2022-11-09T21:51:46.855Z,100.00
2022-11-09T21:56:50.955Z,100.00
2022-11-09T22:01:53.750Z,100.00
2022-11-09T22:06:56.670Z,100.00
2022-11-09T22:12:18.364Z,100.00
2022-11-09T22:17:21.528Z,100.00
2022-11-09T22:22:24.779Z,100.00
2022-11-09T22:27:31.478Z,100.00
2022-11-09T22:32:34.307Z,100.00
2022-11-09T22:37:37.285Z,100.00
2022-11-09T22:42:40.014Z,100.00
2022-11-09T22:47:42.830Z,100.00
2022-11-09T22:52:45.810Z,100.00
2022-11-09T22:57:49.405Z,100.00
2022-11-09T23:02:56.475Z,100.00
2022-11-09T23:07:59.368Z,100.00
2022-11-09T23:13:02.594Z,100.00
2022-11-09T23:18:24.650Z,100.00
2022-11-09T23:23:27.388Z,100.00
2022-11-09T23:28:30.708Z,100.00
2022-11-09T23:33:33.920Z,100.00
2022-11-09T23:38:38.378Z,100.00
2022-11-09T23:43:46.225Z,100.00
2022-11-09T23:48:51.589Z,100.00
2022-11-09T23:53:54.291Z,100.00
2022-11-09T23:58:57.052Z,100.00
